sensor_id;sensor_type;location;lat;lon;timestamp;temperature;humidity
78884;SHT31;68262;51.968;5.672;2023-03-01T00:02:15;4.3;48.0
78884;SHT31;68262;51.968;5.672;2023-03-01T00:04:45;4.2;48.1
78884;SHT31;68262;51.968;5.672;2023-03-01T00:07:14;4.2;48.9
78884;SHT31;68262;51.968;5.672;2023-03-01T00:09:44;4.1;48.9
78884;SHT31;68262;51.968;5.672;2023-03-01T00:12:15;4.1;49.3
78884;SHT31;68262;51.968;5.672;2023-03-01T00:14:45;4.1;48.8
78884;SHT31;68262;51.968;5.672;2023-03-01T00:17:14;4.0;48.8
78884;SHT31;68262;51.968;5.672;2023-03-01T00:19:44;4.0;48.9
78884;SHT31;68262;51.968;5.672;2023-03-01T00:22:14;4.0;49.2
78884;SHT31;68262;51.968;5.672;2023-03-01T00:26:21;4.0;49.1
78884;SHT31;68262;51.968;5.672;2023-03-01T00:28:51;3.9;49.2
78884;SHT31;68262;51.968;5.672;2023-03-01T00:31:24;3.9;49.8
78884;SHT31;68262;51.968;5.672;2023-03-01T00:35:44;3.9;48.7
78884;SHT31;68262;51.968;5.672;2023-03-01T00:41:39;3.9;48.3
78884;SHT31;68262;51.968;5.672;2023-03-01T01:04:32;3.8;48.2
78884;SHT31;68262;51.968;5.672;2023-03-01T01:07:02;3.8;48.3
78884;SHT31;68262;51.968;5.672;2023-03-01T01:09:33;3.8;48.2
78884;SHT31;68262;51.968;5.672;2023-03-01T01:14:38;3.8;48.1
78884;SHT31;68262;51.968;5.672;2023-03-01T01:18:14;3.7;48.1
78884;SHT31;68262;51.968;5.672;2023-03-01T01:21:18;3.7;48.2
78884;SHT31;68262;51.968;5.672;2023-03-01T01:26:08;3.7;47.8
78884;SHT31;68262;51.968;5.672;2023-03-01T01:28:39;3.8;48.0
78884;SHT31;68262;51.968;5.672;2023-03-01T01:31:08;3.8;47.6
78884;SHT31;68262;51.968;5.672;2023-03-01T01:33:46;3.7;47.8
78884;SHT31;68262;51.968;5.672;2023-03-01T01:37:46;3.6;48.1
78884;SHT31;68262;51.968;5.672;2023-03-01T01:54:54;3.6;48.5
78884;SHT31;68262;51.968;5.672;2023-03-01T02:07:14;3.5;49.5
78884;SHT31;68262;51.968;5.672;2023-03-01T09:45:27;13.2;30.5
78884;SHT31;68262;51.968;5.672;2023-03-01T09:48:02;12.7;31.4
78884;SHT31;68262;51.968;5.672;2023-03-01T09:50:38;12.6;31.7
78884;SHT31;68262;51.968;5.672;2023-03-01T09:53:12;12.5;31.5
78884;SHT31;68262;51.968;5.672;2023-03-01T09:55:45;12.4;31.5
78884;SHT31;68262;51.968;5.672;2023-03-01T09:58:31;12.2;31.8
78884;SHT31;68262;51.968;5.672;2023-03-01T10:01:18;12.1;31.9
78884;SHT31;68262;51.968;5.672;2023-03-01T10:04:03;12.1;32.6
78884;SHT31;68262;51.968;5.672;2023-03-01T10:06:35;12.0;32.2
78884;SHT31;68262;51.968;5.672;2023-03-01T10:09:10;12.0;32.2
78884;SHT31;68262;51.968;5.672;2023-03-01T10:11:44;11.9;31.0
78884;SHT31;68262;51.968;5.672;2023-03-01T10:14:26;11.7;31.4
78884;SHT31;68262;51.968;5.672;2023-03-01T10:17:03;11.5;32.7
78884;SHT31;68262;51.968;5.672;2023-03-01T10:19:41;11.5;31.0
78884;SHT31;68262;51.968;5.672;2023-03-01T10:22:16;11.5;32.3
78884;SHT31;68262;51.968;5.672;2023-03-01T10:24:50;11.5;31.8
78884;SHT31;68262;51.968;5.672;2023-03-01T10:27:23;11.7;32.5
78884;SHT31;68262;51.968;5.672;2023-03-01T10:30:05;12.0;32.3
78884;SHT31;68262;51.968;5.672;2023-03-01T10:32:41;12.3;30.7
78884;SHT31;68262;51.968;5.672;2023-03-01T10:35:20;12.5;30.9
78884;SHT31;68262;51.968;5.672;2023-03-01T10:38:03;12.7;30.2
78884;SHT31;68262;51.968;5.672;2023-03-01T10:40:35;12.8;30.7
78884;SHT31;68262;51.968;5.672;2023-03-01T10:43:06;13.0;30.4
78884;SHT31;68262;51.968;5.672;2023-03-01T10:45:39;13.2;28.7
78884;SHT31;68262;51.968;5.672;2023-03-01T10:48:17;13.3;28.5
78884;SHT31;68262;51.968;5.672;2023-03-01T10:50:50;13.2;29.8
78884;SHT31;68262;51.968;5.672;2023-03-01T10:53:26;13.1;30.0
78884;SHT31;68262;51.968;5.672;2023-03-01T10:56:01;13.1;29.5
78884;SHT31;68262;51.968;5.672;2023-03-01T10:58:32;13.2;29.5
78884;SHT31;68262;51.968;5.672;2023-03-01T11:01:05;13.4;29.1
78884;SHT31;68262;51.968;5.672;2023-03-01T11:03:38;13.6;29.2
78884;SHT31;68262;51.968;5.672;2023-03-01T11:06:21;13.8;28.2
78884;SHT31;68262;51.968;5.672;2023-03-01T11:08:52;14.0;27.0
78884;SHT31;68262;51.968;5.672;2023-03-01T11:11:30;14.1;27.8
78884;SHT31;68262;51.968;5.672;2023-03-01T11:14:05;14.3;26.9
78884;SHT31;68262;51.968;5.672;2023-03-01T11:16:37;14.4;27.6
78884;SHT31;68262;51.968;5.672;2023-03-01T11:19:21;14.5;27.3
78884;SHT31;68262;51.968;5.672;2023-03-01T11:21:58;14.7;27.6
78884;SHT31;68262;51.968;5.672;2023-03-01T11:24:34;14.8;26.9
78884;SHT31;68262;51.968;5.672;2023-03-01T11:27:17;14.9;26.6
78884;SHT31;68262;51.968;5.672;2023-03-01T11:29:52;15.0;29.5
78884;SHT31;68262;51.968;5.672;2023-03-01T11:32:26;15.0;30.3
78884;SHT31;68262;51.968;5.672;2023-03-01T11:35:03;15.4;26.2
78884;SHT31;68262;51.968;5.672;2023-03-01T11:37:40;15.7;24.9
78884;SHT31;68262;51.968;5.672;2023-03-01T11:40:17;15.8;25.7
78884;SHT31;68262;51.968;5.672;2023-03-01T11:43:04;15.8;26.0
78884;SHT31;68262;51.968;5.672;2023-03-01T11:45:46;15.9;25.8
78884;SHT31;68262;51.968;5.672;2023-03-01T11:48:29;15.9;31.6
78884;SHT31;68262;51.968;5.672;2023-03-01T11:51:08;15.8;27.9
78884;SHT31;68262;51.968;5.672;2023-03-01T11:54:06;15.7;26.7
78884;SHT31;68262;51.968;5.672;2023-03-01T11:56:45;15.6;26.3
78884;SHT31;68262;51.968;5.672;2023-03-01T11:59:46;15.5;26.8
78884;SHT31;68262;51.968;5.672;2023-03-01T12:12:33;15.9;25.5
78884;SHT31;68262;51.968;5.672;2023-03-01T12:19:36;15.2;26.0
78884;SHT31;68262;51.968;5.672;2023-03-01T12:22:31;15.1;26.6
78884;SHT31;68262;51.968;5.672;2023-03-01T12:25:10;15.1;26.2
78884;SHT31;68262;51.968;5.672;2023-03-01T12:33:54;15.1;27.8
78884;SHT31;68262;51.968;5.672;2023-03-01T12:36:34;15.1;26.6
78884;SHT31;68262;51.968;5.672;2023-03-01T12:39:22;15.2;26.0
78884;SHT31;68262;51.968;5.672;2023-03-01T12:42:02;15.3;25.7
78884;SHT31;68262;51.968;5.672;2023-03-01T12:44:52;15.4;27.5
78884;SHT31;68262;51.968;5.672;2023-03-01T12:47:43;15.5;27.1
78884;SHT31;68262;51.968;5.672;2023-03-01T12:50:20;15.7;27.1
78884;SHT31;68262;51.968;5.672;2023-03-01T12:52:52;16.0;26.6
78884;SHT31;68262;51.968;5.672;2023-03-01T12:55:29;16.3;26.0
78884;SHT31;68262;51.968;5.672;2023-03-01T12:58:07;16.9;26.8
78884;SHT31;68262;51.968;5.672;2023-03-01T13:00:50;17.6;25.0
78884;SHT31;68262;51.968;5.672;2023-03-01T13:03:31;18.3;23.8
78884;SHT31;68262;51.968;5.672;2023-03-01T13:06:10;18.8;23.5
78884;SHT31;68262;51.968;5.672;2023-03-01T13:08:47;19.2;22.9
78884;SHT31;68262;51.968;5.672;2023-03-01T13:11:21;19.7;21.8
78884;SHT31;68262;51.968;5.672;2023-03-01T13:13:53;20.0;22.4
78884;SHT31;68262;51.968;5.672;2023-03-01T13:16:42;20.4;22.6
78884;SHT31;68262;51.968;5.672;2023-03-01T13:19:18;20.8;21.1
78884;SHT31;68262;51.968;5.672;2023-03-01T13:21:50;21.1;21.1
78884;SHT31;68262;51.968;5.672;2023-03-01T13:24:32;21.3;21.0
78884;SHT31;68262;51.968;5.672;2023-03-01T13:27:21;21.6;20.0
78884;SHT31;68262;51.968;5.672;2023-03-01T13:29:58;21.8;20.7
78884;SHT31;68262;51.968;5.672;2023-03-01T13:32:34;21.9;19.7
78884;SHT31;68262;51.968;5.672;2023-03-01T13:35:42;22.1;20.7
78884;SHT31;68262;51.968;5.672;2023-03-01T13:38:45;22.3;20.2
78884;SHT31;68262;51.968;5.672;2023-03-01T13:41:17;22.5;19.5
78884;SHT31;68262;51.968;5.672;2023-03-01T13:43:50;22.6;19.1
78884;SHT31;68262;51.968;5.672;2023-03-01T13:46:22;22.7;19.0
78884;SHT31;68262;51.968;5.672;2023-03-01T13:48:56;22.8;18.5
78884;SHT31;68262;51.968;5.672;2023-03-01T13:51:28;22.9;19.5
78884;SHT31;68262;51.968;5.672;2023-03-01T13:53:58;22.9;18.7
78884;SHT31;68262;51.968;5.672;2023-03-01T13:56:36;22.9;19.1
78884;SHT31;68262;51.968;5.672;2023-03-01T13:59:14;23.0;19.0
78884;SHT31;68262;51.968;5.672;2023-03-01T14:01:53;23.1;18.7
78884;SHT31;68262;51.968;5.672;2023-03-01T14:04:25;23.2;19.1
78884;SHT31;68262;51.968;5.672;2023-03-01T14:07:10;23.3;17.8
78884;SHT31;68262;51.968;5.672;2023-03-01T14:09:43;23.3;18.4
78884;SHT31;68262;51.968;5.672;2023-03-01T14:12:23;23.4;19.1
78884;SHT31;68262;51.968;5.672;2023-03-01T14:15:00;23.5;18.6
78884;SHT31;68262;51.968;5.672;2023-03-01T14:17:41;23.5;18.8
78884;SHT31;68262;51.968;5.672;2023-03-01T14:20:18;23.5;19.1
78884;SHT31;68262;51.968;5.672;2023-03-01T14:22:51;23.6;19.3
78884;SHT31;68262;51.968;5.672;2023-03-01T14:25:24;23.7;18.5
78884;SHT31;68262;51.968;5.672;2023-03-01T14:27:58;23.8;18.5
78884;SHT31;68262;51.968;5.672;2023-03-01T14:30:32;23.9;18.5
78884;SHT31;68262;51.968;5.672;2023-03-01T14:33:05;24.0;18.0
78884;SHT31;68262;51.968;5.672;2023-03-01T14:35:36;24.0;18.2
78884;SHT31;68262;51.968;5.672;2023-03-01T14:38:06;24.0;18.1
78884;SHT31;68262;51.968;5.672;2023-03-01T14:40:37;24.0;18.3
78884;SHT31;68262;51.968;5.672;2023-03-01T14:43:13;24.0;18.5
78884;SHT31;68262;51.968;5.672;2023-03-01T14:45:49;24.0;17.9
78884;SHT31;68262;51.968;5.672;2023-03-01T14:48:20;24.0;18.1
78884;SHT31;68262;51.968;5.672;2023-03-01T14:50:50;23.9;17.6
78884;SHT31;68262;51.968;5.672;2023-03-01T14:53:24;23.9;17.7
78884;SHT31;68262;51.968;5.672;2023-03-01T14:55:56;23.8;17.5
78884;SHT31;68262;51.968;5.672;2023-03-01T14:58:32;23.7;17.5
78884;SHT31;68262;51.968;5.672;2023-03-01T15:01:04;23.5;17.2
78884;SHT31;68262;51.968;5.672;2023-03-01T15:03:38;23.4;17.7
78884;SHT31;68262;51.968;5.672;2023-03-01T15:06:12;23.2;17.6
78884;SHT31;68262;51.968;5.672;2023-03-01T15:08:48;23.0;17.8
78884;SHT31;68262;51.968;5.672;2023-03-01T15:11:21;22.9;18.0
78884;SHT31;68262;51.968;5.672;2023-03-01T15:13:52;22.7;18.3
78884;SHT31;68262;51.968;5.672;2023-03-01T15:16:25;22.6;18.9
78884;SHT31;68262;51.968;5.672;2023-03-01T15:18:58;22.5;18.6
78884;SHT31;68262;51.968;5.672;2023-03-01T15:21:31;22.5;17.6
78884;SHT31;68262;51.968;5.672;2023-03-01T15:24:06;22.3;18.0
78884;SHT31;68262;51.968;5.672;2023-03-01T15:26:41;22.2;18.3
78884;SHT31;68262;51.968;5.672;2023-03-01T15:29:17;22.0;18.7
78884;SHT31;68262;51.968;5.672;2023-03-01T15:31:56;21.8;18.2
78884;SHT31;68262;51.968;5.672;2023-03-01T15:34:29;21.7;19.0
78884;SHT31;68262;51.968;5.672;2023-03-01T15:37:02;21.5;18.8
78884;SHT31;68262;51.968;5.672;2023-03-01T15:39:41;21.3;18.3
78884;SHT31;68262;51.968;5.672;2023-03-01T15:42:13;20.8;18.8
78884;SHT31;68262;51.968;5.672;2023-03-01T15:44:47;20.1;19.3
78884;SHT31;68262;51.968;5.672;2023-03-01T15:47:27;19.6;19.7
78884;SHT31;68262;51.968;5.672;2023-03-01T15:50:00;19.1;20.1
78884;SHT31;68262;51.968;5.672;2023-03-01T15:52:34;18.7;20.4
78884;SHT31;68262;51.968;5.672;2023-03-01T15:55:16;18.2;21.1
78884;SHT31;68262;51.968;5.672;2023-03-01T15:57:47;17.9;20.9
78884;SHT31;68262;51.968;5.672;2023-03-01T16:00:18;17.6;21.6
78884;SHT31;68262;51.968;5.672;2023-03-01T16:02:47;17.3;22.2
78884;SHT31;68262;51.968;5.672;2023-03-01T16:05:21;17.1;22.6
78884;SHT31;68262;51.968;5.672;2023-03-01T16:07:51;17.0;22.7
78884;SHT31;68262;51.968;5.672;2023-03-01T16:10:22;17.0;23.0
78884;SHT31;68262;51.968;5.672;2023-03-01T16:12:52;16.9;22.5
78884;SHT31;68262;51.968;5.672;2023-03-01T16:15:25;16.8;22.8
78884;SHT31;68262;51.968;5.672;2023-03-01T16:17:55;16.7;22.7
78884;SHT31;68262;51.968;5.672;2023-03-01T16:20:25;16.5;22.8
78884;SHT31;68262;51.968;5.672;2023-03-01T16:22:55;16.4;23.1
78884;SHT31;68262;51.968;5.672;2023-03-01T16:25:27;16.3;24.0
78884;SHT31;68262;51.968;5.672;2023-03-01T16:27:57;16.1;23.5
78884;SHT31;68262;51.968;5.672;2023-03-01T16:30:31;16.0;23.8
78884;SHT31;68262;51.968;5.672;2023-03-01T16:33:03;15.9;24.2
78884;SHT31;68262;51.968;5.672;2023-03-01T16:35:39;15.8;23.9
78884;SHT31;68262;51.968;5.672;2023-03-01T16:38:10;15.7;24.3
78884;SHT31;68262;51.968;5.672;2023-03-01T16:40:48;15.6;24.0
78884;SHT31;68262;51.968;5.672;2023-03-01T16:43:18;15.5;23.8
78884;SHT31;68262;51.968;5.672;2023-03-01T16:45:48;15.3;24.4
78884;SHT31;68262;51.968;5.672;2023-03-01T16:48:18;15.2;24.4
78884;SHT31;68262;51.968;5.672;2023-03-01T16:50:56;15.1;24.7
78884;SHT31;68262;51.968;5.672;2023-03-01T16:53:26;15.0;24.0
78884;SHT31;68262;51.968;5.672;2023-03-01T16:55:58;14.9;24.7
78884;SHT31;68262;51.968;5.672;2023-03-01T16:58:28;14.7;25.3
78884;SHT31;68262;51.968;5.672;2023-03-01T17:01:05;14.6;25.6
78884;SHT31;68262;51.968;5.672;2023-03-01T17:03:36;14.5;25.7
78884;SHT31;68262;51.968;5.672;2023-03-01T17:06:08;14.4;26.2
78884;SHT31;68262;51.968;5.672;2023-03-01T17:08:39;14.3;26.5
78884;SHT31;68262;51.968;5.672;2023-03-01T17:11:11;14.2;26.8
78884;SHT31;68262;51.968;5.672;2023-03-01T17:13:43;14.1;26.5
78884;SHT31;68262;51.968;5.672;2023-03-01T17:16:16;14.0;27.2
78884;SHT31;68262;51.968;5.672;2023-03-01T17:18:47;14.0;26.7
78884;SHT31;68262;51.968;5.672;2023-03-01T17:21:18;13.9;27.1
78884;SHT31;68262;51.968;5.672;2023-03-01T17:23:48;13.8;27.2
78884;SHT31;68262;51.968;5.672;2023-03-01T17:26:21;13.7;28.3
78884;SHT31;68262;51.968;5.672;2023-03-01T17:28:51;13.6;28.4
78884;SHT31;68262;51.968;5.672;2023-03-01T17:31:22;13.5;28.1
78884;SHT31;68262;51.968;5.672;2023-03-01T17:33:51;13.4;28.0
78884;SHT31;68262;51.968;5.672;2023-03-01T17:36:23;13.3;29.2
78884;SHT31;68262;51.968;5.672;2023-03-01T17:38:52;13.2;29.3
78884;SHT31;68262;51.968;5.672;2023-03-01T17:41:22;13.1;29.6
78884;SHT31;68262;51.968;5.672;2023-03-01T17:43:51;13.0;30.1
78884;SHT31;68262;51.968;5.672;2023-03-01T17:46:21;13.0;29.9
78884;SHT31;68262;51.968;5.672;2023-03-01T17:48:51;12.9;30.7
78884;SHT31;68262;51.968;5.672;2023-03-01T17:51:22;12.8;31.2
78884;SHT31;68262;51.968;5.672;2023-03-01T17:53:52;12.7;31.1
78884;SHT31;68262;51.968;5.672;2023-03-01T17:56:21;12.6;31.3
78884;SHT31;68262;51.968;5.672;2023-03-01T17:58:51;12.5;31.3
78884;SHT31;68262;51.968;5.672;2023-03-01T18:01:21;12.5;31.7
78884;SHT31;68262;51.968;5.672;2023-03-01T18:03:52;12.4;31.6
78884;SHT31;68262;51.968;5.672;2023-03-01T18:06:24;12.3;32.2
78884;SHT31;68262;51.968;5.672;2023-03-01T18:08:55;12.2;31.9
78884;SHT31;68262;51.968;5.672;2023-03-01T18:11:25;12.1;32.5
78884;SHT31;68262;51.968;5.672;2023-03-01T18:13:54;12.1;32.1
78884;SHT31;68262;51.968;5.672;2023-03-01T18:16:24;12.0;33.0
78884;SHT31;68262;51.968;5.672;2023-03-01T18:18:56;11.9;33.3
78884;SHT31;68262;51.968;5.672;2023-03-01T18:21:28;11.8;33.6
78884;SHT31;68262;51.968;5.672;2023-03-01T18:23:58;11.8;33.6
78884;SHT31;68262;51.968;5.672;2023-03-01T18:26:28;11.7;33.7
78884;SHT31;68262;51.968;5.672;2023-03-01T18:28:57;11.7;33.2
78884;SHT31;68262;51.968;5.672;2023-03-01T18:31:30;11.6;33.6
78884;SHT31;68262;51.968;5.672;2023-03-01T18:34:00;11.5;33.4
78884;SHT31;68262;51.968;5.672;2023-03-01T18:36:32;11.5;33.7
78884;SHT31;68262;51.968;5.672;2023-03-01T18:39:03;11.4;33.7
78884;SHT31;68262;51.968;5.672;2023-03-01T18:41:35;11.4;34.2
78884;SHT31;68262;51.968;5.672;2023-03-01T18:44:04;11.3;34.2
78884;SHT31;68262;51.968;5.672;2023-03-01T18:46:35;11.2;34.1
78884;SHT31;68262;51.968;5.672;2023-03-01T18:49:06;11.2;34.9
78884;SHT31;68262;51.968;5.672;2023-03-01T18:51:36;11.1;35.1
78884;SHT31;68262;51.968;5.672;2023-03-01T18:54:05;11.1;35.3
78884;SHT31;68262;51.968;5.672;2023-03-01T18:56:35;11.0;34.4
78884;SHT31;68262;51.968;5.672;2023-03-01T18:59:04;10.9;35.1
78884;SHT31;68262;51.968;5.672;2023-03-01T19:01:34;10.9;34.2
78884;SHT31;68262;51.968;5.672;2023-03-01T19:04:04;10.8;34.7
78884;SHT31;68262;51.968;5.672;2023-03-01T19:06:35;10.7;34.9
78884;SHT31;68262;51.968;5.672;2023-03-01T19:09:06;10.6;35.4
78884;SHT31;68262;51.968;5.672;2023-03-01T19:11:37;10.5;34.8
78884;SHT31;68262;51.968;5.672;2023-03-01T19:14:07;10.4;35.2
78884;SHT31;68262;51.968;5.672;2023-03-01T19:16:36;10.4;35.6
78884;SHT31;68262;51.968;5.672;2023-03-01T19:19:06;10.3;36.1
78884;SHT31;68262;51.968;5.672;2023-03-01T19:21:38;10.2;35.6
78884;SHT31;68262;51.968;5.672;2023-03-01T19:24:08;10.2;35.9
78884;SHT31;68262;51.968;5.672;2023-03-01T19:26:37;10.1;35.9
78884;SHT31;68262;51.968;5.672;2023-03-01T19:29:08;10.0;35.9
78884;SHT31;68262;51.968;5.672;2023-03-01T19:31:38;10.0;36.2
78884;SHT31;68262;51.968;5.672;2023-03-01T19:34:10;9.9;35.8
78884;SHT31;68262;51.968;5.672;2023-03-01T19:36:41;9.8;36.5
78884;SHT31;68262;51.968;5.672;2023-03-01T19:39:12;9.8;36.4
78884;SHT31;68262;51.968;5.672;2023-03-01T19:41:42;9.7;37.1
78884;SHT31;68262;51.968;5.672;2023-03-01T19:44:12;9.7;37.2
78884;SHT31;68262;51.968;5.672;2023-03-01T19:46:42;9.6;37.3
78884;SHT31;68262;51.968;5.672;2023-03-01T19:49:11;9.6;37.4
78884;SHT31;68262;51.968;5.672;2023-03-01T19:51:41;9.6;37.3
78884;SHT31;68262;51.968;5.672;2023-03-01T19:54:10;9.5;37.2
78884;SHT31;68262;51.968;5.672;2023-03-01T19:56:41;9.5;37.8
78884;SHT31;68262;51.968;5.672;2023-03-01T19:59:10;9.4;37.8
78884;SHT31;68262;51.968;5.672;2023-03-01T20:01:41;9.4;38.0
78884;SHT31;68262;51.968;5.672;2023-03-01T20:04:11;9.4;37.5
78884;SHT31;68262;51.968;5.672;2023-03-01T20:06:43;9.4;37.8
78884;SHT31;68262;51.968;5.672;2023-03-01T20:09:16;9.3;37.4
78884;SHT31;68262;51.968;5.672;2023-03-01T20:11:46;9.3;37.8
78884;SHT31;68262;51.968;5.672;2023-03-01T20:14:16;9.3;37.9
78884;SHT31;68262;51.968;5.672;2023-03-01T20:16:46;9.2;37.7
78884;SHT31;68262;51.968;5.672;2023-03-01T20:19:15;9.2;37.5
78884;SHT31;68262;51.968;5.672;2023-03-01T20:21:44;9.2;37.7
78884;SHT31;68262;51.968;5.672;2023-03-01T20:24:14;9.1;38.1
78884;SHT31;68262;51.968;5.672;2023-03-01T20:26:43;9.1;37.5
78884;SHT31;68262;51.968;5.672;2023-03-01T20:29:13;9.1;37.6
78884;SHT31;68262;51.968;5.672;2023-03-01T20:31:45;9.0;37.7
78884;SHT31;68262;51.968;5.672;2023-03-01T20:34:15;9.0;38.0
78884;SHT31;68262;51.968;5.672;2023-03-01T20:36:44;8.9;38.5
78884;SHT31;68262;51.968;5.672;2023-03-01T20:39:16;8.9;38.1
78884;SHT31;68262;51.968;5.672;2023-03-01T20:41:45;8.9;38.2
78884;SHT31;68262;51.968;5.672;2023-03-01T20:44:14;8.9;38.3
78884;SHT31;68262;51.968;5.672;2023-03-01T20:46:44;8.8;38.2
78884;SHT31;68262;51.968;5.672;2023-03-01T20:49:13;8.8;38.3
78884;SHT31;68262;51.968;5.672;2023-03-01T20:51:44;8.7;38.4
78884;SHT31;68262;51.968;5.672;2023-03-01T20:54:15;8.7;38.4
78884;SHT31;68262;51.968;5.672;2023-03-01T20:56:46;8.7;38.5
78884;SHT31;68262;51.968;5.672;2023-03-01T20:59:16;8.6;38.5
78884;SHT31;68262;51.968;5.672;2023-03-01T21:01:45;8.6;38.8
78884;SHT31;68262;51.968;5.672;2023-03-01T21:04:15;8.6;38.9
78884;SHT31;68262;51.968;5.672;2023-03-01T21:06:44;8.5;38.9
78884;SHT31;68262;51.968;5.672;2023-03-01T21:09:16;8.5;39.2
78884;SHT31;68262;51.968;5.672;2023-03-01T21:11:48;8.5;39.0
78884;SHT31;68262;51.968;5.672;2023-03-01T21:14:17;8.4;39.2
78884;SHT31;68262;51.968;5.672;2023-03-01T21:16:48;8.4;39.1
78884;SHT31;68262;51.968;5.672;2023-03-01T21:19:17;8.4;39.3
78884;SHT31;68262;51.968;5.672;2023-03-01T21:21:48;8.3;39.5
78884;SHT31;68262;51.968;5.672;2023-03-01T21:24:17;8.3;39.4
78884;SHT31;68262;51.968;5.672;2023-03-01T21:26:47;8.3;39.7
78884;SHT31;68262;51.968;5.672;2023-03-01T21:29:16;8.2;39.8
78884;SHT31;68262;51.968;5.672;2023-03-01T21:31:46;8.2;39.9
78884;SHT31;68262;51.968;5.672;2023-03-01T21:34:15;8.2;39.7
78884;SHT31;68262;51.968;5.672;2023-03-01T21:36:45;8.1;40.0
78884;SHT31;68262;51.968;5.672;2023-03-01T21:39:14;8.1;40.3
78884;SHT31;68262;51.968;5.672;2023-03-01T21:41:48;8.0;40.1
78884;SHT31;68262;51.968;5.672;2023-03-01T21:44:17;8.0;40.5
78884;SHT31;68262;51.968;5.672;2023-03-01T21:46:48;8.0;40.6
78884;SHT31;68262;51.968;5.672;2023-03-01T21:49:19;7.9;40.5
78884;SHT31;68262;51.968;5.672;2023-03-01T21:51:49;7.9;40.6
78884;SHT31;68262;51.968;5.672;2023-03-01T21:54:21;7.8;40.6
78884;SHT31;68262;51.968;5.672;2023-03-01T21:56:50;7.8;40.8
78884;SHT31;68262;51.968;5.672;2023-03-01T21:59:22;7.7;41.2
78884;SHT31;68262;51.968;5.672;2023-03-01T22:01:52;7.7;41.1
78884;SHT31;68262;51.968;5.672;2023-03-01T22:04:24;7.7;41.1
78884;SHT31;68262;51.968;5.672;2023-03-01T22:06:53;7.6;41.5
78884;SHT31;68262;51.968;5.672;2023-03-01T22:09:23;7.6;41.7
78884;SHT31;68262;51.968;5.672;2023-03-01T22:11:55;7.6;41.8
78884;SHT31;68262;51.968;5.672;2023-03-01T22:15:22;7.8;41.2
78884;SHT31;68262;51.968;5.672;2023-03-01T22:17:53;7.7;41.5
78884;SHT31;68262;51.968;5.672;2023-03-01T22:21:50;7.6;41.7
78884;SHT31;68262;51.968;5.672;2023-03-01T22:24:23;7.6;41.7
78884;SHT31;68262;51.968;5.672;2023-03-01T22:26:53;7.6;41.9
78884;SHT31;68262;51.968;5.672;2023-03-01T22:29:24;7.6;41.8
78884;SHT31;68262;51.968;5.672;2023-03-01T22:31:56;7.6;42.0
78884;SHT31;68262;51.968;5.672;2023-03-01T22:34:26;7.6;42.0
78884;SHT31;68262;51.968;5.672;2023-03-01T22:36:59;7.5;42.4
78884;SHT31;68262;51.968;5.672;2023-03-01T22:39:28;7.5;42.5
78884;SHT31;68262;51.968;5.672;2023-03-01T22:42:00;7.4;42.7
78884;SHT31;68262;51.968;5.672;2023-03-01T22:44:30;7.4;42.8
78884;SHT31;68262;51.968;5.672;2023-03-01T22:47:00;7.3;42.7
78884;SHT31;68262;51.968;5.672;2023-03-01T22:49:30;7.3;43.1
78884;SHT31;68262;51.968;5.672;2023-03-01T22:52:01;7.2;43.4
78884;SHT31;68262;51.968;5.672;2023-03-01T22:54:31;7.2;43.5
78884;SHT31;68262;51.968;5.672;2023-03-01T22:57:16;7.2;43.5
78884;SHT31;68262;51.968;5.672;2023-03-01T22:59:46;7.2;43.8
78884;SHT31;68262;51.968;5.672;2023-03-01T23:02:16;7.1;44.1
78884;SHT31;68262;51.968;5.672;2023-03-01T23:04:45;7.1;44.5
78884;SHT31;68262;51.968;5.672;2023-03-01T23:09:42;7.0;44.8
78884;SHT31;68262;51.968;5.672;2023-03-01T23:12:12;7.0;45.2
78884;SHT31;68262;51.968;5.672;2023-03-01T23:14:41;7.0;45.3
78884;SHT31;68262;51.968;5.672;2023-03-01T23:17:11;7.0;45.6
78884;SHT31;68262;51.968;5.672;2023-03-01T23:19:41;6.9;45.8
78884;SHT31;68262;51.968;5.672;2023-03-01T23:22:11;6.9;46.4
78884;SHT31;68262;51.968;5.672;2023-03-01T23:24:40;6.9;46.7
78884;SHT31;68262;51.968;5.672;2023-03-01T23:27:10;6.8;47.3
78884;SHT31;68262;51.968;5.672;2023-03-01T23:29:42;6.8;47.7
78884;SHT31;68262;51.968;5.672;2023-03-01T23:32:12;6.7;47.9
78884;SHT31;68262;51.968;5.672;2023-03-01T23:34:42;6.7;48.3
78884;SHT31;68262;51.968;5.672;2023-03-01T23:37:12;6.6;49.0
78884;SHT31;68262;51.968;5.672;2023-03-01T23:39:41;6.6;49.5
78884;SHT31;68262;51.968;5.672;2023-03-01T23:42:11;6.5;49.8
78884;SHT31;68262;51.968;5.672;2023-03-01T23:44:41;6.5;50.2
78884;SHT31;68262;51.968;5.672;2023-03-01T23:47:12;6.4;50.7
78884;SHT31;68262;51.968;5.672;2023-03-01T23:49:41;6.4;51.4
78884;SHT31;68262;51.968;5.672;2023-03-01T23:52:12;6.4;52.3
78884;SHT31;68262;51.968;5.672;2023-03-01T23:54:43;6.3;52.3
78884;SHT31;68262;51.968;5.672;2023-03-01T23:57:13;6.3;53.3
78884;SHT31;68262;51.968;5.672;2023-03-01T23:59:43;6.2;53.9
